Time;durP1;ratioP1;P1;durP2;ratioP2;P2;SDS_P1;SDS_P2;PMS_P1;PMS_P2;Temp;Humidity;BMP_temperature;BMP_pressure;BME280_temperature;BME280_humidity;BME280_pressure;Samples;Min_cycle;Max_cycle;Signal;HPM_P1;HPM_P2
2022/09/06 00:00:13;;;;;;;3.30;2.10;;;;;;;23.29;35.19;100486.25;10043556;29;20271;-80
2022/09/06 00:05:36;;;;;;;6.10;1.90;;;;;;;23.70;34.55;100487.22;10048039;29;20202;-80
2022/09/06 00:10:58;;;;;;;4.10;2.53;;;;;;;23.43;35.58;100483.25;9971498;29;20538;-80
2022/09/06 00:16:23;;;;;;;3.67;2.53;;;;;;;23.45;34.96;100478.72;9973264;29;20232;-80
2022/09/06 00:21:45;;;;;;;2.83;2.10;;;;;;;23.48;33.89;100474.19;9968495;29;20249;-81
2022/09/06 00:27:07;;;;;;;4.00;2.10;;;;;;;23.71;33.52;100471.59;9985637;29;20249;-80
2022/09/06 00:32:31;;;;;;;3.28;1.83;;;;;;;23.71;31.60;100460.06;9983996;29;20272;-80
2022/09/06 00:38:00;;;;;;;5.82;1.83;;;;;;;23.14;32.63;100465.38;9979895;29;20264;-80
2022/09/06 00:43:23;;;;;;;2.65;1.55;;;;;;;23.05;31.52;100457.16;9965101;29;20247;-80
2022/09/06 00:48:48;;;;;;;5.68;1.83;;;;;;;23.56;30.48;100447.00;9981680;29;20196;-80
2022/09/06 00:54:10;;;;;;;3.30;1.52;;;;;;;23.63;30.79;100446.97;9980707;29;20690;-80
2022/09/06 00:59:35;;;;;;;3.90;1.65;;;;;;;23.87;29.85;100448.84;9980104;29;20220;-79
2022/09/06 01:04:57;;;;;;;1.77;1.20;;;;;;;24.24;29.69;100448.09;9980249;29;20288;-80
2022/09/06 01:10:44;;;;;;;1.90;1.40;;;;;;;24.19;29.60;100445.69;10035171;29;20237;-80
2022/09/06 01:16:28;;;;;;;1.50;1.40;;;;;;;24.13;29.58;100450.25;10026657;29;20226;-80
2022/09/06 01:22:13;;;;;;;2.67;1.40;;;;;;;24.26;29.79;100456.31;10040297;29;20206;-80
2022/09/06 01:28:00;;;;;;;2.92;1.85;;;;;;;22.26;33.12;100550.53;10045920;29;20262;-80
2022/09/06 01:33:37;;;;;;;2.55;1.90;;;;;;;21.18;36.54;100539.25;10046919;29;20262;-80
2022/09/06 01:39:00;;;;;;;2.67;1.67;;;;;;;22.33;33.02;100530.44;10047726;29;20262;-80
2022/09/06 01:44:24;;;;;;;3.45;1.45;;;;;;;24.23;29.59;100532.88;10030504;29;20206;-80
2022/09/06 01:50:16;;;;;;;3.78;1.73;;;;;;;23.32;31.08;100525.66;10040194;29;20576;-80
2022/09/06 01:55:41;;;;;;;8.52;2.22;;;;;;;22.75;31.43;100525.88;10044344;29;20704;-79
2022/09/06 02:01:21;;;;;;;5.00;2.10;;;;;;;22.98;31.43;100523.34;10038905;29;20270;-79
2022/09/06 02:06:48;;;;;;;2.40;1.88;;;;;;;22.99;30.70;100527.84;10029477;29;20330;-80
2022/09/06 02:12:12;;;;;;;5.93;1.85;;;;;;;23.66;29.72;100523.03;10029325;29;20247;-80
2022/09/06 02:17:42;;;;;;;3.50;1.80;;;;;;;24.35;28.84;100514.25;10028232;29;20278;-80
2022/09/06 02:23:05;;;;;;;3.13;1.73;;;;;;;24.02;29.92;100526.47;10042374;29;20199;-80
2022/09/06 02:28:27;;;;;;;4.80;1.58;;;;;;;24.44;28.80;100514.59;10034764;29;20668;-80
2022/09/06 02:33:50;;;;;;;3.38;1.42;;;;;;;24.16;29.23;100523.47;10031940;29;20266;-80
2022/09/06 02:39:12;;;;;;;4.03;1.98;;;;;;;22.74;31.66;100533.69;10037888;29;20222;-80
2022/09/06 02:44:34;;;;;;;5.68;2.10;;;;;;;23.90;31.02;100528.59;10037102;29;20665;-80
2022/09/06 02:49:56;;;;;;;6.53;2.30;;;;;;;23.30;31.71;100513.75;10042784;29;20557;-80
2022/09/06 02:55:18;;;;;;;4.05;2.13;;;;;;;22.89;32.95;100528.72;10062660;29;20246;-80
2022/09/06 03:00:41;;;;;;;6.03;2.42;;;;;;;22.74;33.40;100527.13;10063852;29;20302;-80
2022/09/06 03:06:03;;;;;;;6.53;2.55;;;;;;;22.64;33.71;100519.34;10049180;29;20222;-80
2022/09/06 03:11:26;;;;;;;4.15;2.28;;;;;;;23.61;32.85;100518.50;10063697;29;20275;-80
2022/09/06 03:16:48;;;;;;;5.57;2.95;;;;;;;23.76;32.31;100505.69;10048490;29;20278;-80
2022/09/06 03:22:10;;;;;;;8.20;3.33;;;;;;;23.91;32.81;100509.28;10049225;29;20521;-80
2022/09/06 03:27:33;;;;;;;4.65;2.80;;;;;;;23.50;33.16;100497.63;10034296;29;20262;-80
2022/09/06 03:32:56;;;;;;;7.63;2.47;;;;;;;22.09;35.78;100509.16;10051294;29;20609;-80
2022/09/06 03:38:18;;;;;;;4.63;2.70;;;;;;;22.84;34.60;100503.25;10045491;29;20238;-80
2022/09/06 03:43:40;;;;;;;5.72;2.35;;;;;;;22.27;35.66;100497.63;10044593;29;20255;-80
2022/09/06 03:49:02;;;;;;;5.13;2.70;;;;;;;22.63;35.41;100494.72;10058218;29;20259;-80
2022/09/06 03:54:27;;;;;;;9.85;3.20;;;;;;;23.76;33.47;100485.53;10055049;29;20254;-80
2022/09/06 03:59:49;;;;;;;10.95;2.75;;;;;;;23.10;35.22;100499.91;10045120;29;20250;-80
2022/09/06 04:05:15;;;;;;;7.85;2.65;;;;;;;22.66;36.18;100511.94;10037167;29;20668;-80
2022/09/06 04:10:37;;;;;;;8.80;2.80;;;;;;;22.74;36.04;100515.63;10017771;29;20258;-80
2022/09/06 04:16:00;;;;;;;6.88;2.88;;;;;;;22.85;35.98;100505.72;10053868;29;20314;-79
2022/09/06 04:21:22;;;;;;;7.72;3.30;;;;;;;23.05;35.55;100514.66;10040998;29;21173;-79
2022/09/06 04:26:45;;;;;;;4.72;2.63;;;;;;;22.53;36.27;100511.56;10036541;29;20615;-80
2022/09/06 04:32:07;;;;;;;5.50;2.40;;;;;;;21.97;37.02;100503.00;10053936;29;20259;-79
2022/09/06 04:37:29;;;;;;;6.45;2.88;;;;;;;22.10;38.24;100498.47;10043951;29;20697;-80
2022/09/06 04:42:51;;;;;;;7.68;2.55;;;;;;;20.58;40.33;100513.13;10049310;29;20230;-81
2022/09/06 04:48:14;;;;;;;8.27;2.88;;;;;;;20.79;40.71;100501.84;10035662;29;20233;-81
2022/09/06 04:53:36;;;;;;;5.45;2.25;;;;;;;20.49;41.15;100502.03;10027228;29;20258;-81
2022/09/06 04:58:59;;;;;;;3.75;2.35;;;;;;;21.62;38.69;100490.22;10039393;29;20262;-81
2022/09/06 05:04:21;;;;;;;11.20;2.47;;;;;;;20.79;39.80;100505.53;10044147;29;20211;-81
2022/09/06 05:09:43;;;;;;;3.75;2.20;;;;;;;21.31;39.31;100514.72;10043663;29;20230;-81
2022/09/06 05:15:06;;;;;;;4.65;2.38;;;;;;;21.48;38.87;100521.75;10051108;29;20203;-81
2022/09/06 05:20:28;;;;;;;7.15;2.35;;;;;;;22.05;38.26;100516.09;10041907;29;20199;-80
2022/09/06 05:25:50;;;;;;;7.63;2.95;;;;;;;22.24;37.31;100506.25;10041765;29;20680;-80
2022/09/06 05:31:24;;;;;;;9.35;2.42;;;;;;;22.79;36.48;100506.56;10022378;29;20210;-80
2022/09/06 05:36:46;;;;;;;4.70;2.03;;;;;;;23.43;36.16;100507.09;10049304;29;20283;-80
2022/09/06 05:42:08;;;;;;;3.17;1.83;;;;;;;23.09;36.94;100506.88;10038021;29;20231;-80
2022/09/06 05:47:34;;;;;;;2.85;1.92;;;;;;;23.12;37.79;100519.59;10022563;29;20586;-80
2022/09/06 05:52:56;;;;;;;4.18;2.40;;;;;;;23.36;36.60;100517.84;10041658;29;20198;-80
2022/09/06 05:58:18;;;;;;;5.18;2.40;;;;;;;23.38;36.65;100513.31;10047872;29;20627;-81
2022/09/06 06:03:40;;;;;;;5.45;2.28;;;;;;;21.68;39.31;100516.47;10045391;29;20238;-80
2022/09/06 06:09:02;;;;;;;10.82;3.00;;;;;;;21.39;39.08;100513.53;10041971;29;20250;-80
2022/09/06 06:14:24;;;;;;;9.00;2.42;;;;;;;22.22;38.43;100514.47;10040525;29;20605;-80
2022/09/06 06:19:46;;;;;;;14.70;3.38;;;;;;;21.53;39.97;100503.31;10039875;29;20545;-80
2022/09/06 06:25:09;;;;;;;13.10;2.55;;;;;;;23.11;36.64;100501.53;10029814;29;20214;-80
2022/09/06 06:30:31;;;;;;;5.22;2.30;;;;;;;22.17;37.64;100502.16;10055582;29;20225;-80
2022/09/06 06:36:02;;;;;;;3.83;2.00;;;;;;;21.61;39.16;100494.31;10003191;29;20302;-80
2022/09/06 06:41:29;;;;;;;5.78;1.70;;;;;;;22.04;38.39;100500.09;10030379;29;20211;-80
2022/09/06 06:47:01;;;;;;;12.95;2.40;;;;;;;22.09;38.09;100489.03;10023914;29;20263;-80
2022/09/06 06:52:24;;;;;;;4.97;1.90;;;;;;;22.57;37.63;100485.69;10051571;29;20202;-79
2022/09/06 06:57:46;;;;;;;6.10;2.40;;;;;;;22.22;38.03;100482.88;10053904;29;20262;-80
2022/09/06 07:03:09;;;;;;;4.55;1.50;;;;;;;22.70;37.14;100474.56;10022265;29;20673;-80
2022/09/06 07:08:32;;;;;;;10.63;2.22;;;;;;;22.21;37.75;100482.06;10043932;29;20732;-80
2022/09/06 07:13:54;;;;;;;3.22;1.35;;;;;;;22.75;36.45;100474.97;10031330;29;20211;-80
2022/09/06 07:19:16;;;;;;;14.45;2.08;;;;;;;22.66;36.90;100471.72;10061984;29;20615;-79
2022/09/06 07:24:39;;;;;;;3.13;1.45;;;;;;;22.44;36.89;100467.22;10053504;29;20247;-80
2022/09/06 07:30:02;;;;;;;5.07;1.73;;;;;;;23.72;34.55;100467.47;10052640;29;20207;-80
2022/09/06 07:35:25;;;;;;;3.75;1.50;;;;;;;23.23;35.56;100474.34;10040514;29;20194;-80
2022/09/06 07:40:59;;;;;;;4.68;1.25;;;;;;;23.91;34.30;100472.66;10037194;29;20205;-80
2022/09/06 07:46:21;;;;;;;3.22;1.10;;;;;;;24.33;33.67;100464.88;10052791;29;20533;-80
2022/09/06 07:51:43;;;;;;;5.32;1.40;;;;;;;23.99;33.26;100472.59;10051469;29;20207;-80
2022/09/06 07:57:05;;;;;;;6.32;1.40;;;;;;;24.69;32.42;100461.59;10065967;29;20215;-80
2022/09/06 08:02:28;;;;;;;5.13;1.20;;;;;;;25.17;30.89;100464.28;10065817;29;20262;-80
2022/09/06 08:07:50;;;;;;;4.07;1.08;;;;;;;24.55;32.14;100456.81;10035548;29;20518;-80
2022/09/06 08:13:12;;;;;;;3.30;1.02;;;;;;;24.78;31.64;100467.69;10065041;29;20214;-80
2022/09/06 08:18:35;;;;;;;4.85;0.88;;;;;;;25.08;31.15;100469.78;10064849;29;20688;-80
2022/09/06 08:23:59;;;;;;;3.30;0.85;;;;;;;26.25;29.96;100470.84;10035465;29;20274;-80
2022/09/06 08:29:21;;;;;;;10.20;1.52;;;;;;;26.96;28.33;100469.47;10050286;29;20199;-80
2022/09/06 08:34:43;;;;;;;2.50;0.60;;;;;;;26.02;29.47;100463.81;10064637;29;20224;-80
2022/09/06 08:40:06;;;;;;;1.05;0.70;;;;;;;25.49;29.34;100461.78;10050788;29;20210;-80
2022/09/06 08:45:28;;;;;;;4.00;0.80;;;;;;;27.14;26.97;100464.13;10047373;29;20225;-80
2022/09/06 08:51:10;;;;;;;1.23;0.50;;;;;;;27.53;27.71;100471.09;10050822;29;20198;-81
2022/09/06 08:56:56;;;;;;;1.08;0.57;;;;;;;26.83;28.54;100465.63;10063745;29;20222;-81
2022/09/06 09:02:20;;;;;;;1.95;0.77;;;;;;;27.47;27.05;100460.06;10047753;29;20288;-80
2022/09/06 09:07:44;;;;;;;0.90;0.77;;;;;;;27.32;27.27;100455.03;10046541;29;20524;-80
2022/09/06 09:13:08;;;;;;;0.98;0.60;;;;;;;27.63;26.12;100444.78;10048241;29;20255;-80
2022/09/06 09:18:37;;;;;;;1.13;0.50;;;;;;;27.71;26.82;100451.19;10032039;29;20524;-80
2022/09/06 09:24:09;;;;;;;2.05;0.60;;;;;;;27.17;26.00;100445.06;10057781;29;20282;-80
2022/09/06 09:29:31;;;;;;;3.17;0.47;;;;;;;25.60;28.27;100445.13;10061254;29;20588;-80
2022/09/06 09:34:53;;;;;;;1.65;0.40;;;;;;;27.36;26.37;100436.34;10033520;29;20258;-80
2022/09/06 09:40:24;;;;;;;2.05;0.35;;;;;;;27.23;26.23;100432.47;10041495;29;20576;-81
2022/09/06 09:46:08;;;;;;;2.17;0.45;;;;;;;27.73;25.88;100431.28;10058344;29;20278;-81
2022/09/06 09:51:35;;;;;;;0.80;0.50;;;;;;;27.83;26.25;100429.44;10032391;29;20616;-80
2022/09/06 09:56:57;;;;;;;1.27;0.40;;;;;;;28.17;25.94;100421.88;10032220;29;20238;-80
2022/09/06 10:02:37;;;;;;;3.65;0.50;;;;;;;27.88;25.81;100415.22;10046508;29;20202;-80
2022/09/06 10:08:00;;;;;;;0.75;0.60;;;;;;;27.80;25.60;100408.00;10038880;29;20266;-80
2022/09/06 10:13:29;;;;;;;1.55;0.68;;;;;;;27.36;25.95;100404.50;10060595;29;20202;-80
2022/09/06 10:18:51;;;;;;;1.80;0.40;;;;;;;28.25;25.25;100398.50;10035014;29;20278;-80
2022/09/06 10:24:24;;;;;;;1.05;0.20;;;;;;;28.01;25.03;100401.63;10034995;29;20206;-80
2022/09/06 10:29:36;;;;;;;2.47;0.57;;;;;;;27.46;26.12;100406.31;10043702;29;20220;-80
2022/09/06 10:35:06;;;;;;;1.50;0.47;;;;;;;27.34;25.36;100398.34;10045738;29;20657;-80
2022/09/06 10:41:06;;;;;;;1.45;0.38;;;;;;;28.35;24.88;100392.44;10044211;29;20274;-80
2022/09/06 10:46:28;;;;;;;2.10;0.30;;;;;;;28.20;24.28;100384.56;10044335;29;20190;-80
2022/09/06 10:51:55;;;;;;;0.90;0.20;;;;;;;27.00;25.80;100395.00;10029008;29;20203;-80
2022/09/06 10:57:34;;;;;;;0.32;0.30;;;;;;;28.45;24.04;100384.69;10050870;29;20251;-80
2022/09/06 11:03:07;;;;;;;0.80;0.40;;;;;;;28.93;23.86;100385.75;10050861;29;20600;-80
2022/09/06 11:08:36;;;;;;;0.70;0.40;;;;;;;29.26;23.74;100378.50;10053984;29;20231;-80
2022/09/06 11:13:46;;;;;;;2.63;0.40;;;;;;;28.78;23.72;100374.59;10031638;29;20266;-80
2022/09/06 11:19:16;;;;;;;1.27;0.57;;;;;;;29.68;23.39;100367.56;10046133;29;20250;-80
2022/09/06 11:25:32;;;;;;;1.20;0.50;;;;;;;30.27;22.62;100365.06;10053357;29;20663;-80
2022/09/06 11:30:56;;;;;;;1.65;0.40;;;;;;;29.85;23.29;100365.31;9989839;29;20202;-80
2022/09/06 11:36:37;;;;;;;0.60;0.30;;;;;;;29.75;22.88;100369.41;10050252;29;20203;-80
2022/09/06 11:42:00;;;;;;;1.50;0.30;;;;;;;29.89;23.27;100378.44;10038628;29;20254;-80
2022/09/06 11:47:42;;;;;;;2.83;0.65;;;;;;;30.13;22.45;100369.31;10034872;29;20211;-80
2022/09/06 11:53:15;;;;;;;1.08;0.40;;;;;;;29.23;23.02;100370.72;10066069;29;20195;-80
2022/09/06 11:58:41;;;;;;;3.03;0.52;;;;;;;29.83;22.78;100362.06;10032174;29;20235;-80
2022/09/06 12:04:04;;;;;;;1.02;0.60;;;;;;;29.41;22.95;100359.31;10047241;29;20276;-80
2022/09/06 12:09:45;;;;;;;3.58;0.73;;;;;;;31.15;21.76;100355.00;10059615;29;20644;-80
2022/09/06 12:15:53;;;;;;;1.30;0.52;;;;;;;30.23;22.67;100363.09;10048767;29;20592;-80
2022/09/06 12:21:35;;;;;;;1.58;0.57;;;;;;;29.72;23.31;100355.81;10046112;29;20230;-81
2022/09/06 12:27:16;;;;;;;2.85;0.50;;;;;;;30.48;22.16;100343.91;10056251;29;20595;-80
2022/09/06 12:32:44;;;;;;;1.65;0.40;;;;;;;30.44;22.16;100351.94;10015313;29;20214;-80
2022/09/06 12:38:12;;;;;;;3.58;0.40;;;;;;;28.84;23.86;100340.84;10030432;29;20299;-80
2022/09/06 12:43:37;;;;;;;1.30;0.50;;;;;;;30.54;22.27;100339.94;10041546;29;20295;-80
2022/09/06 12:48:59;;;;;;;2.78;0.70;;;;;;;30.59;21.50;100321.06;10042932;29;20234;-80
2022/09/06 12:54:24;;;;;;;4.90;0.60;;;;;;;30.71;21.62;100328.88;10046043;29;20291;-80
2022/09/06 12:59:52;;;;;;;2.28;0.60;;;;;;;30.05;22.20;100322.22;10030005;29;20257;-80
2022/09/06 13:05:14;;;;;;;2.05;0.63;;;;;;;31.62;21.71;100323.47;10044608;29;20206;-80
2022/09/06 13:10:40;;;;;;;3.95;1.08;;;;;;;31.74;20.88;100306.31;10048003;29;20294;-80
2022/09/06 13:16:02;;;;;;;1.10;0.60;;;;;;;31.15;21.23;100317.16;10044620;29;20234;-80
2022/09/06 13:21:28;;;;;;;2.08;0.80;;;;;;;31.18;20.87;100319.13;10045041;29;20263;-80
2022/09/06 13:26:51;;;;;;;2.88;0.65;;;;;;;31.03;20.36;100309.34;10029036;29;20209;-80
2022/09/06 13:32:13;;;;;;;3.75;0.65;;;;;;;31.07;20.82;100322.47;10061149;29;20231;-80
2022/09/06 13:37:39;;;;;;;3.83;1.02;;;;;;;30.30;21.93;100308.91;10049023;29;20585;-80
2022/09/06 13:43:02;;;;;;;1.60;0.75;;;;;;;31.04;21.57;100310.97;10017755;29;20246;-80
2022/09/06 13:48:24;;;;;;;1.20;0.57;;;;;;;30.54;21.29;100305.03;10050609;29;20238;-80
2022/09/06 13:53:47;;;;;;;3.17;1.00;;;;;;;31.88;20.72;100294.03;10045027;29;20202;-80
2022/09/06 13:59:10;;;;;;;3.95;0.88;;;;;;;31.16;20.81;100295.50;10058144;29;20246;-80
2022/09/06 14:04:35;;;;;;;1.45;0.80;;;;;;;30.44;21.39;100293.78;10040592;29;20234;-80
2022/09/06 14:09:57;;;;;;;2.05;0.80;;;;;;;31.33;21.58;100299.75;10023278;29;20222;-80
2022/09/06 14:15:19;;;;;;;2.50;0.73;;;;;;;29.87;21.63;100302.53;10048797;29;20231;-79
2022/09/06 14:20:47;;;;;;;3.53;0.68;;;;;;;30.29;22.36;100302.25;10047864;29;20278;-80
2022/09/06 14:26:10;;;;;;;4.03;1.00;;;;;;;31.12;21.84;100306.47;10041035;29;20283;-80
2022/09/06 14:31:33;;;;;;;3.20;1.05;;;;;;;31.30;20.47;100291.97;10048481;29;20198;-80
2022/09/06 14:36:55;;;;;;;3.83;0.90;;;;;;;31.71;19.96;100295.66;10046992;29;20229;-80
2022/09/06 14:42:17;;;;;;;3.08;1.10;;;;;;;30.65;20.87;100292.97;10065119;29;20263;-80
2022/09/06 14:47:40;;;;;;;3.63;1.30;;;;;;;30.56;20.92;100284.22;10049219;29;20255;-80
2022/09/06 14:53:02;;;;;;;2.33;1.25;;;;;;;31.01;21.01;100277.00;10063162;29;20202;-80
2022/09/06 14:58:24;;;;;;;2.97;1.40;;;;;;;30.10;21.62;100266.41;10046323;29;20299;-81
2022/09/06 15:03:50;;;;;;;0.85;0.85;;;;;;;29.86;21.51;100273.94;10057905;29;20207;-80
2022/09/06 15:09:14;;;;;;;5.13;1.30;;;;;;;30.45;21.05;100263.41;10025393;29;20230;-80
2022/09/06 15:14:36;;;;;;;2.55;1.40;;;;;;;30.17;22.38;100260.31;10041253;29;20234;-80
2022/09/06 15:19:58;;;;;;;3.20;2.38;;;;;;;30.57;21.71;100250.91;10056767;29;20242;-79
2022/09/06 15:25:21;;;;;;;4.55;1.90;;;;;;;29.17;22.96;100233.25;10053100;29;20259;-79
2022/09/06 15:30:43;;;;;;;4.57;2.05;;;;;;;30.86;21.24;100230.97;10027999;29;20230;-80
2022/09/06 15:36:08;;;;;;;6.53;2.45;;;;;;;29.37;22.64;100233.78;10047089;29;20230;-80
2022/09/06 15:41:34;;;;;;;6.93;2.55;;;;;;;30.59;20.86;100227.97;10049979;29;20251;-79
2022/09/06 15:46:57;;;;;;;7.05;3.30;;;;;;;30.48;20.87;100221.75;10063299;29;20218;-80
2022/09/06 15:52:19;;;;;;;6.55;3.20;;;;;;;29.92;21.02;100213.94;10033154;29;20214;-80
2022/09/06 15:57:42;;;;;;;6.65;2.83;;;;;;;30.93;20.53;100219.06;10057827;29;20199;-80
2022/09/06 16:03:04;;;;;;;2.58;2.20;;;;;;;30.42;19.75;100220.75;10048562;29;20681;-81
2022/09/06 16:08:26;;;;;;;5.93;2.20;;;;;;;30.47;20.03;100212.19;10050554;29;20238;-80
2022/09/06 16:13:48;;;;;;;2.55;1.50;;;;;;;29.61;20.48;100213.03;10033117;29;20537;-81
2022/09/06 16:19:11;;;;;;;4.65;1.30;;;;;;;30.69;19.92;100200.53;10035836;29;20230;-80
2022/09/06 16:24:34;;;;;;;3.90;1.80;;;;;;;30.70;19.63;100202.13;10050302;29;20206;-80
2022/09/06 16:29:56;;;;;;;3.65;1.30;;;;;;;29.86;20.58;100192.59;10001098;29;20187;-81
2022/09/06 16:35:18;;;;;;;2.15;1.00;;;;;;;30.11;21.44;100209.91;10042220;29;20206;-81
2022/09/06 16:40:45;;;;;;;3.50;1.40;;;;;;;30.22;20.58;100204.47;10048168;29;20286;-80
2022/09/06 16:46:07;;;;;;;3.92;1.00;;;;;;;29.50;21.46;100204.72;10034007;29;20203;-80
2022/09/06 16:51:30;;;;;;;2.95;1.02;;;;;;;30.37;20.34;100204.72;10046580;29;20207;-81
2022/09/06 16:56:52;;;;;;;3.15;1.25;;;;;;;30.35;21.50;100194.84;10060585;29;20596;-80
2022/09/06 17:02:15;;;;;;;3.65;1.20;;;;;;;30.17;21.68;100202.19;10024178;29;20434;-80
2022/09/06 17:07:37;;;;;;;2.55;1.05;;;;;;;30.02;21.89;100204.00;10042389;29;20237;-80
2022/09/06 17:12:59;;;;;;;1.67;1.10;;;;;;;30.58;21.35;100200.16;10037206;29;20214;-81
2022/09/06 17:18:28;;;;;;;4.88;2.17;;;;;;;30.39;22.18;100204.25;10576910;27;20562;-81
2022/09/06 17:23:52;;;;;;;4.75;1.50;;;;;;;29.20;23.92;100206.19;10558189;28;20528;-82
2022/09/06 17:29:15;;;;;;;1.80;1.15;;;;;;;28.83;23.68;100202.88;10567483;28;20266;-80
2022/09/06 17:34:38;;;;;;;4.72;1.55;;;;;;;28.52;23.81;100204.69;10574121;28;20618;-84
2022/09/06 17:40:00;;;;;;;4.00;1.92;;;;;;;28.62;25.14;100202.72;10571794;28;20247;-83
2022/09/06 17:45:23;;;;;;;3.85;1.70;;;;;;;28.38;24.93;100210.94;10575241;28;20198;-80
2022/09/06 17:50:45;;;;;;;5.20;1.67;;;;;;;28.52;24.35;100204.69;10567384;28;20194;-80
2022/09/06 17:56:12;;;;;;;5.13;1.90;;;;;;;28.22;25.50;100208.97;10561095;28;20679;-80
2022/09/06 18:01:36;;;;;;;5.95;2.40;;;;;;;28.33;26.08;100214.44;10561570;28;20194;-80
2022/09/06 18:06:58;;;;;;;6.05;2.30;;;;;;;28.39;25.82;100201.78;10551678;28;20214;-80
2022/09/06 18:12:21;;;;;;;5.30;2.30;;;;;;;27.96;26.77;100208.06;10550372;28;20194;-80
2022/09/06 18:17:43;;;;;;;9.27;3.97;;;;;;;28.14;26.63;100213.31;10557765;28;20230;-80
2022/09/06 18:23:05;;;;;;;6.63;2.85;;;;;;;28.15;26.97;100209.97;10558657;28;20314;-80
2022/09/06 18:28:28;;;;;;;7.70;3.15;;;;;;;28.27;27.00;100210.47;10533025;28;20190;-80
2022/09/06 18:33:50;;;;;;;10.57;5.10;;;;;;;28.05;27.40;100205.31;10523474;28;20198;-79
2022/09/06 18:39:17;;;;;;;9.32;3.03;;;;;;;27.54;29.35;100212.16;10518828;28;20195;-80
2022/09/06 18:44:40;;;;;;;7.50;2.58;;;;;;;27.55;28.74;100211.72;10521450;28;20224;-80
2022/09/06 18:50:03;;;;;;;7.68;2.97;;;;;;;27.74;28.36;100221.50;10541428;28;20191;-80
2022/09/06 18:55:28;;;;;;;5.78;2.42;;;;;;;27.63;29.05;100206.53;10529382;28;20255;-80
2022/09/06 19:00:51;;;;;;;5.90;2.97;;;;;;;27.23;29.47;100209.66;10525979;28;20195;-81
2022/09/06 19:06:16;;;;;;;4.57;2.53;;;;;;;27.27;28.94;100212.50;10537952;28;20214;-81
2022/09/06 19:11:40;;;;;;;5.50;3.00;;;;;;;26.70;30.43;100214.69;10528914;28;20194;-80
2022/09/06 19:17:02;;;;;;;5.78;2.65;;;;;;;27.27;29.57;100203.81;10530106;28;20226;-81
2022/09/06 19:22:25;;;;;;;4.78;2.83;;;;;;;26.85;29.38;100205.69;10522481;28;20190;-82
2022/09/06 19:27:47;;;;;;;6.60;3.25;;;;;;;26.36;30.72;100199.84;10542062;28;20591;-81
2022/09/06 19:33:09;;;;;;;6.03;2.83;;;;;;;26.80;30.18;100177.31;10544883;28;20191;-82
2022/09/06 19:38:32;;;;;;;10.02;3.30;;;;;;;26.43;30.99;100191.00;10534619;28;20211;-79
2022/09/06 19:43:56;;;;;;;8.43;2.90;;;;;;;26.38;30.85;100185.75;10533592;28;20275;-81
2022/09/06 19:49:18;;;;;;;9.88;3.17;;;;;;;26.31;31.22;100169.38;10538791;28;20247;-80
2022/09/06 19:54:41;;;;;;;6.72;3.10;;;;;;;26.38;30.38;100162.66;10541066;28;20286;-80
2022/09/06 20:00:04;;;;;;;8.80;3.60;;;;;;;26.40;29.44;100143.59;10535762;28;20194;-80
2022/09/06 20:05:26;;;;;;;7.40;3.47;;;;;;;26.52;30.01;100133.41;10514063;28;20237;-80
2022/09/06 20:10:57;;;;;;;8.25;3.35;;;;;;;26.31;30.19;100128.94;10518369;28;20195;-82
2022/09/06 20:16:20;;;;;;;8.82;3.85;;;;;;;25.99;30.23;100147.00;10526185;28;20265;-82
2022/09/06 20:21:42;;;;;;;6.75;3.40;;;;;;;25.82;30.55;100153.16;10545439;28;20266;-81
2022/09/06 20:27:04;;;;;;;9.73;4.15;;;;;;;26.20;29.96;100156.44;10540160;28;20691;-82
2022/09/06 20:32:27;;;;;;;7.03;3.55;;;;;;;24.50;32.27;100167.06;10551309;28;20394;-82
2022/09/06 20:37:49;;;;;;;6.43;2.95;;;;;;;24.92;30.84;100147.47;10527919;28;20355;-83
2022/09/06 20:43:11;;;;;;;4.57;2.50;;;;;;;25.88;28.73;100157.16;10512906;28;20666;-82
2022/09/06 20:48:37;;;;;;;7.25;2.55;;;;;;;25.34;29.32;100158.25;10521927;28;20226;-83
2022/09/06 20:54:01;;;;;;;4.35;2.03;;;;;;;25.93;28.85;100163.22;10540417;28;20228;-81
2022/09/06 20:59:24;;;;;;;2.38;1.92;;;;;;;25.94;28.79;100170.63;10525873;28;20240;-83
2022/09/06 21:04:46;;;;;;;5.15;2.38;;;;;;;25.92;29.50;100155.81;10532970;28;20198;-81
2022/09/06 21:10:08;;;;;;;4.93;2.35;;;;;;;25.97;29.04;100154.47;10520119;28;20234;-81
2022/09/06 21:15:35;;;;;;;7.38;2.72;;;;;;;24.94;30.84;100162.25;10516538;28;20214;-82
2022/09/06 21:20:59;;;;;;;5.35;2.72;;;;;;;24.82;31.73;100165.78;10539647;28;20190;-82
2022/09/06 21:26:22;;;;;;;5.10;2.10;;;;;;;25.16;30.05;100163.50;10545269;28;20247;-83
2022/09/06 21:31:44;;;;;;;7.43;2.28;;;;;;;25.27;29.61;100158.38;10531563;28;20228;-82
2022/09/06 21:37:06;;;;;;;9.95;2.70;;;;;;;25.31;29.79;100161.19;10526724;28;20222;-82
2022/09/06 21:42:29;;;;;;;2.25;1.73;;;;;;;24.97;30.58;100162.22;10520810;28;20464;-82
2022/09/06 21:47:51;;;;;;;5.43;1.75;;;;;;;24.71;30.64;100168.00;10523413;28;20216;-83
2022/09/06 21:53:13;;;;;;;4.35;1.83;;;;;;;24.56;30.77;100171.13;10520435;28;20263;-82
2022/09/06 21:58:36;;;;;;;3.75;1.65;;;;;;;25.04;29.57;100178.56;10545834;28;20210;-81
2022/09/06 22:03:59;;;;;;;2.30;1.35;;;;;;;25.13;29.66;100184.56;10536116;28;20491;-82
2022/09/06 22:09:21;;;;;;;2.05;1.45;;;;;;;24.91;29.51;100186.19;10542118;28;20214;-82
2022/09/06 22:14:43;;;;;;;2.35;1.00;;;;;;;24.69;29.75;100177.09;10546672;28;20234;-82
2022/09/06 22:20:07;;;;;;;2.92;1.08;;;;;;;25.29;28.76;100161.63;10543329;28;20191;-82
2022/09/06 22:25:30;;;;;;;3.03;1.05;;;;;;;24.59;29.99;100150.03;10542418;28;20190;-82
2022/09/06 22:30:52;;;;;;;1.65;0.82;;;;;;;24.66;29.91;100120.31;10544173;28;20256;-83
2022/09/06 22:36:14;;;;;;;2.90;0.90;;;;;;;24.87;29.21;100087.41;10539383;28;20210;-81
2022/09/06 22:41:37;;;;;;;1.50;0.80;;;;;;;24.96;29.15;100067.50;10534592;28;20266;-82
2022/09/06 22:46:59;;;;;;;3.35;0.80;;;;;;;24.92;29.60;100049.44;10536506;28;20294;-82
2022/09/06 22:52:21;;;;;;;1.23;0.80;;;;;;;24.79;30.03;100054.22;10527216;28;20250;-81
2022/09/06 22:57:43;;;;;;;2.58;1.15;;;;;;;25.35;28.84;100047.34;10547221;28;20648;-81
2022/09/06 23:03:05;;;;;;;2.22;0.98;;;;;;;24.92;29.59;100041.59;10552778;28;20334;-82
2022/09/06 23:08:28;;;;;;;4.03;0.85;;;;;;;24.91;29.67;100036.28;10552300;28;20214;-83
2022/09/06 23:13:54;;;;;;;2.08;0.80;;;;;;;25.60;28.75;100003.50;10515483;28;20272;-81
2022/09/06 23:19:16;;;;;;;6.60;0.75;;;;;;;26.15;28.14;99980.72;10539926;28;20248;-82
2022/09/06 23:24:39;;;;;;;4.18;1.10;;;;;;;25.19;29.65;100017.59;10532572;28;20487;-83
2022/09/06 23:30:02;;;;;;;1.80;0.90;;;;;;;24.93;29.76;100016.47;10508655;28;20550;-82
2022/09/06 23:35:24;;;;;;;1.17;1.00;;;;;;;25.11;29.29;100027.66;10545699;28;20299;-82
2022/09/06 23:40:46;;;;;;;3.08;0.90;;;;;;;24.35;30.99;100023.69;10546859;28;20194;-83
2022/09/06 23:46:10;;;;;;;3.70;0.93;;;;;;;24.67;29.89;100021.06;10546815;28;20801;-82
2022/09/06 23:51:32;;;;;;;2.15;0.70;;;;;;;25.14;29.52;100044.03;10543451;28;20262;-82
2022/09/06 23:56:54;;;;;;;1.77;0.77;;;;;;;24.49;30.85;100083.97;10544958;28;20272;-82
